createdAt,value
2018-03-20T00:00:29.802Z,84.00
2018-03-20T00:02:57.347Z,83.87
2018-03-20T00:05:24.887Z,83.90
2018-03-20T00:07:52.558Z,83.94
2018-03-20T00:10:20.100Z,83.36
2018-03-20T00:12:47.654Z,84.22
2018-03-20T00:15:15.522Z,84.09
2018-03-20T00:17:43.057Z,83.74
2018-03-20T00:20:10.610Z,84.13
2018-03-20T00:22:38.193Z,85.06
2018-03-20T00:25:05.754Z,85.26
2018-03-20T00:27:33.295Z,85.55
2018-03-20T00:30:01.177Z,85.93
2018-03-20T00:32:28.723Z,86.07
2018-03-20T00:34:56.287Z,86.06
2018-03-20T00:37:24.014Z,86.09
2018-03-20T00:39:51.550Z,85.86
2018-03-20T00:42:19.104Z,86.16
2018-03-20T00:44:46.829Z,86.02
2018-03-20T00:47:14.427Z,85.84
2018-03-20T00:49:41.971Z,85.99
2018-03-20T00:52:09.565Z,86.00
2018-03-20T00:54:37.112Z,86.07
2018-03-20T00:57:04.701Z,85.99
2018-03-20T00:59:32.278Z,86.04
2018-03-20T01:01:59.837Z,86.10
2018-03-20T01:04:27.391Z,86.27
2018-03-20T01:06:55.114Z,85.95
2018-03-20T01:09:22.691Z,86.39
2018-03-20T01:11:50.242Z,86.33
2018-03-20T01:14:17.851Z,86.28
2018-03-20T01:16:45.381Z,85.88
2018-03-20T01:19:12.918Z,85.89
2018-03-20T01:21:40.797Z,85.88
2018-03-20T01:24:08.339Z,85.43
2018-03-20T01:26:35.886Z,86.33
2018-03-20T01:29:03.451Z,86.93
2018-03-20T01:31:30.996Z,86.89
2018-03-20T01:33:58.543Z,86.02
2018-03-20T01:36:26.130Z,85.80
2018-03-20T01:38:53.669Z,85.53
2018-03-20T01:41:21.196Z,85.10
2018-03-20T01:43:48.767Z,85.00
2018-03-20T01:46:16.323Z,84.07
2018-03-20T01:48:43.917Z,83.41
2018-03-20T01:51:11.671Z,84.40
2018-03-20T01:53:39.208Z,84.25
2018-03-20T01:56:06.756Z,84.64
2018-03-20T01:58:34.314Z,84.66
2018-03-20T02:01:01.864Z,84.41
2018-03-20T02:03:29.453Z,84.67
2018-03-20T02:05:57.001Z,84.72
2018-03-20T02:08:24.542Z,84.52
2018-03-20T02:10:52.131Z,84.66
2018-03-20T02:13:19.666Z,84.46
2018-03-20T02:15:47.230Z,84.00
2018-03-20T02:18:15.029Z,83.76
2018-03-20T02:20:42.604Z,83.44
2018-03-20T02:23:10.155Z,83.85
2018-03-20T02:25:37.726Z,84.25
2018-03-20T02:28:05.279Z,84.06
2018-03-20T02:30:32.847Z,84.00
2018-03-20T02:33:00.707Z,82.99
2018-03-20T02:35:28.255Z,83.40
2018-03-20T02:37:55.806Z,83.99
2018-03-20T02:40:23.473Z,84.24
2018-03-20T02:42:51.024Z,84.41
2018-03-20T02:45:18.576Z,84.37
2018-03-20T02:47:46.137Z,84.23
2018-03-20T02:50:13.694Z,84.11
2018-03-20T02:52:41.236Z,83.77
2018-03-20T02:55:08.955Z,84.82
2018-03-20T02:57:36.503Z,85.85
2018-03-20T03:00:04.078Z,85.99
2018-03-20T03:02:31.797Z,86.73
2018-03-20T03:04:59.337Z,86.58
2018-03-20T03:07:26.894Z,86.76
2018-03-20T03:09:54.615Z,86.75
2018-03-20T03:12:22.208Z,86.81
2018-03-20T03:14:49.743Z,87.04
2018-03-20T03:17:17.498Z,87.22
2018-03-20T03:19:45.051Z,87.31
2018-03-20T03:22:12.592Z,87.08
2018-03-20T03:24:40.162Z,86.51
2018-03-20T03:27:07.711Z,86.63
2018-03-20T03:29:35.246Z,86.11
2018-03-20T03:32:02.978Z,86.62
2018-03-20T03:34:30.531Z,86.77
2018-03-20T03:36:58.089Z,87.08
2018-03-20T03:39:25.655Z,86.90
2018-03-20T03:41:53.251Z,87.19
2018-03-20T03:44:20.829Z,86.75
2018-03-20T03:46:48.390Z,86.41
2018-03-20T03:49:15.938Z,86.43
2018-03-20T03:51:43.500Z,86.22
2018-03-20T03:54:11.079Z,85.86
2018-03-20T03:56:38.622Z,85.97
2018-03-20T03:59:06.166Z,85.90
2018-03-20T04:01:33.756Z,85.58
2018-03-20T04:04:01.296Z,85.81
2018-03-20T04:06:28.880Z,85.60
2018-03-20T04:08:56.556Z,85.63
2018-03-20T04:11:24.111Z,85.80
2018-03-20T04:13:51.676Z,85.89
2018-03-20T04:16:19.546Z,85.79
2018-03-20T04:18:47.115Z,86.40
2018-03-20T04:21:14.693Z,86.80
2018-03-20T04:23:42.415Z,86.99
2018-03-20T04:26:09.962Z,86.59
2018-03-20T04:28:37.540Z,86.57
2018-03-20T04:31:05.223Z,86.30
2018-03-20T04:33:32.785Z,86.19
2018-03-20T04:36:00.346Z,86.41
2018-03-20T04:38:28.017Z,86.50
2018-03-20T04:40:55.574Z,86.47
2018-03-20T04:43:23.121Z,86.41
2018-03-20T04:45:50.713Z,86.28
2018-03-20T04:48:18.288Z,86.24
2018-03-20T04:50:45.887Z,86.52
2018-03-20T04:53:13.454Z,86.47
2018-03-20T04:55:41.005Z,86.17
2018-03-20T04:58:08.559Z,86.48
2018-03-20T05:00:36.287Z,86.31
2018-03-20T05:03:03.860Z,86.42
2018-03-20T05:05:31.410Z,86.73
2018-03-20T05:07:58.990Z,86.69
2018-03-20T05:10:26.546Z,86.36
2018-03-20T05:12:54.136Z,86.34
2018-03-20T05:15:21.710Z,86.96
2018-03-20T05:17:49.798Z,86.61
2018-03-20T05:23:36.663Z,86.79
2018-03-20T05:26:04.405Z,86.72
2018-03-20T05:28:31.961Z,86.16
2018-03-20T05:30:59.539Z,85.71
2018-03-20T05:33:27.273Z,85.38
2018-03-20T05:35:54.825Z,84.97
2018-03-20T05:38:22.415Z,84.30
2018-03-20T05:40:50.029Z,84.18
2018-03-20T05:43:17.635Z,84.21
2018-03-20T05:45:45.203Z,84.15
2018-03-20T05:48:18.518Z,82.83
2018-03-20T05:50:56.918Z,81.28
2018-03-20T05:53:24.599Z,80.61
2018-03-20T05:55:52.139Z,80.98
2018-03-20T05:58:19.678Z,80.81
2018-03-20T06:00:47.407Z,81.21
2018-03-20T06:03:14.954Z,80.91
2018-03-20T06:05:42.536Z,80.13
2018-03-20T06:08:10.143Z,79.45
2018-03-20T06:10:37.692Z,78.90
2018-03-20T06:13:05.218Z,79.48
2018-03-20T06:15:32.778Z,78.53
2018-03-20T06:18:00.328Z,78.64
2018-03-20T06:20:27.871Z,78.15
2018-03-20T06:22:55.602Z,77.62
2018-03-20T06:25:23.151Z,77.04
2018-03-20T06:27:50.702Z,77.57
2018-03-20T06:30:18.265Z,76.80
2018-03-20T06:32:45.807Z,77.29
2018-03-20T06:35:13.350Z,76.25
2018-03-20T06:37:40.921Z,76.71
2018-03-20T06:40:08.474Z,76.27
2018-03-20T06:42:36.014Z,74.83
2018-03-20T06:45:03.614Z,74.47
2018-03-20T06:47:31.150Z,73.11
2018-03-20T06:49:58.724Z,73.46
2018-03-20T06:52:26.558Z,71.59
2018-03-20T06:54:54.098Z,71.87
2018-03-20T06:57:21.643Z,71.18
2018-03-20T06:59:49.215Z,71.24
2018-03-20T07:02:16.802Z,69.52
2018-03-20T07:04:44.674Z,71.13
2018-03-20T07:07:12.220Z,70.97
2018-03-20T07:09:39.769Z,70.34
2018-03-20T07:12:07.632Z,70.22
2018-03-20T07:14:35.179Z,70.15
2018-03-20T07:17:02.740Z,69.51
2018-03-20T07:19:30.427Z,69.07
2018-03-20T07:21:57.991Z,68.12
2018-03-20T07:24:25.540Z,67.16
2018-03-20T07:26:53.257Z,66.24
2018-03-20T07:29:20.808Z,64.35
2018-03-20T07:31:48.360Z,61.55
2018-03-20T07:34:15.947Z,59.11
2018-03-20T07:36:43.505Z,59.75
2018-03-20T07:39:11.058Z,56.84
2018-03-20T07:41:38.794Z,55.48
2018-03-20T07:44:06.334Z,54.10
2018-03-20T07:46:33.883Z,52.42
2018-03-20T07:49:01.480Z,54.00
2018-03-20T07:51:29.023Z,55.27
2018-03-20T07:53:56.563Z,56.21
2018-03-20T07:56:24.173Z,54.97
2018-03-20T07:58:51.725Z,54.43
2018-03-20T08:01:19.271Z,54.96
2018-03-20T08:03:46.926Z,55.20
2018-03-20T08:06:14.481Z,55.50
2018-03-20T08:08:42.023Z,55.62
2018-03-20T08:11:09.700Z,57.67
2018-03-20T08:13:37.256Z,60.04
2018-03-20T08:16:04.806Z,58.85
2018-03-20T08:18:32.403Z,58.76
2018-03-20T08:20:59.946Z,57.93
2018-03-20T08:23:27.498Z,59.31
2018-03-20T08:25:55.402Z,58.37
2018-03-20T08:28:22.938Z,58.55
2018-03-20T08:30:50.487Z,59.11
2018-03-20T08:33:18.293Z,59.77
2018-03-20T08:35:45.834Z,59.78
2018-03-20T08:38:13.382Z,60.29
2018-03-20T08:40:40.989Z,59.43
2018-03-20T08:43:08.544Z,58.61
2018-03-20T08:45:36.095Z,58.84
2018-03-20T08:48:03.672Z,59.36
2018-03-20T08:50:31.222Z,58.25
2018-03-20T08:52:58.766Z,58.01
2018-03-20T08:55:26.438Z,58.41
2018-03-20T08:57:53.991Z,58.03
2018-03-20T09:00:21.539Z,59.02
2018-03-20T09:02:49.191Z,59.37
2018-03-20T09:05:16.759Z,60.42
2018-03-20T09:07:44.317Z,61.32
2018-03-20T09:10:12.049Z,62.04
2018-03-20T09:12:39.589Z,61.46
2018-03-20T09:15:07.145Z,63.30
2018-03-20T09:17:35.018Z,61.73
2018-03-20T09:20:02.570Z,60.36
2018-03-20T09:22:30.110Z,61.11
2018-03-20T09:24:57.673Z,62.39
2018-03-20T09:27:25.222Z,62.06
2018-03-20T09:29:52.791Z,62.83
2018-03-20T09:32:20.470Z,62.05
2018-03-20T09:34:48.019Z,62.22
2018-03-20T09:37:15.590Z,62.90
2018-03-20T09:39:43.174Z,63.11
2018-03-20T09:42:10.738Z,63.84
2018-03-20T09:44:38.281Z,64.34
2018-03-20T09:47:05.882Z,64.89
2018-03-20T09:49:33.430Z,65.25
2018-03-20T09:52:00.971Z,65.72
2018-03-20T09:54:28.551Z,63.92
2018-03-20T09:56:56.101Z,64.51
2018-03-20T09:59:23.671Z,65.06
2018-03-20T10:01:51.248Z,63.61
2018-03-20T10:04:18.798Z,63.62
2018-03-20T10:06:46.342Z,65.92
2018-03-20T10:09:13.947Z,63.30
2018-03-20T10:11:41.496Z,64.88
2018-03-20T10:14:09.085Z,65.72
2018-03-20T10:16:36.806Z,65.97
2018-03-20T10:19:04.387Z,64.84
2018-03-20T10:21:31.942Z,66.84
2018-03-20T10:23:59.538Z,65.60
2018-03-20T10:26:27.091Z,65.29
2018-03-20T10:28:54.658Z,64.58
2018-03-20T10:31:22.245Z,64.42
2018-03-20T10:33:49.799Z,65.81
2018-03-20T10:36:17.358Z,65.89
2018-03-20T10:38:44.958Z,65.41
2018-03-20T10:41:12.517Z,63.75
2018-03-20T10:43:40.057Z,64.01
2018-03-20T10:46:07.658Z,62.84
2018-03-20T10:48:35.215Z,60.91
2018-03-20T10:51:02.759Z,60.31
2018-03-20T10:53:30.345Z,60.58
2018-03-20T10:55:57.894Z,60.97
2018-03-20T10:58:25.447Z,62.78
2018-03-20T11:01:07.901Z,61.39
2018-03-20T11:03:35.446Z,60.00
2018-03-20T11:06:03.005Z,60.86
2018-03-20T11:08:30.602Z,60.02
2018-03-20T11:10:58.154Z,60.48
2018-03-20T11:13:25.697Z,61.17
2018-03-20T11:15:53.614Z,60.14
2018-03-20T11:18:21.175Z,60.77
2018-03-20T11:20:48.721Z,57.67
2018-03-20T11:23:16.297Z,56.93
2018-03-20T11:25:43.855Z,54.95
2018-03-20T11:28:11.437Z,56.49
2018-03-20T11:30:39.311Z,58.16
2018-03-20T11:33:06.911Z,57.01
2018-03-20T11:35:34.465Z,55.50
2018-03-20T11:38:02.240Z,55.12
2018-03-20T11:40:29.790Z,55.55
2018-03-20T11:42:57.325Z,55.89
2018-03-20T11:45:25.048Z,55.88
2018-03-20T11:47:52.598Z,57.05
2018-03-20T11:50:20.147Z,55.62
2018-03-20T11:52:47.882Z,56.88
2018-03-20T11:55:15.446Z,57.00
2018-03-20T11:57:43.006Z,58.41
2018-03-20T12:00:10.557Z,57.63
2018-03-20T12:02:38.106Z,57.82
2018-03-20T12:05:05.848Z,57.22
2018-03-20T12:07:33.405Z,55.27
2018-03-20T12:10:00.986Z,54.59
2018-03-20T12:12:28.567Z,56.64
2018-03-20T12:14:56.167Z,54.71
2018-03-20T12:17:23.722Z,56.28
2018-03-20T12:19:51.514Z,54.26
2018-03-20T12:22:19.086Z,56.74
2018-03-20T12:24:46.637Z,55.59
2018-03-20T12:27:14.481Z,56.94
2018-03-20T12:29:42.033Z,58.10
2018-03-20T12:32:09.608Z,57.54
2018-03-20T12:34:37.221Z,58.82
2018-03-20T12:37:04.777Z,58.27
2018-03-20T12:39:32.339Z,59.42
2018-03-20T12:42:00.039Z,61.21
2018-03-20T12:44:27.640Z,57.38
2018-03-20T12:46:55.187Z,59.51
2018-03-20T12:49:22.783Z,59.36
2018-03-20T12:51:50.347Z,58.68
2018-03-20T12:54:17.909Z,58.73
2018-03-20T12:56:45.501Z,57.60
2018-03-20T12:59:13.049Z,56.97
2018-03-20T13:01:40.610Z,57.39
2018-03-20T13:04:08.209Z,57.36
2018-03-20T13:06:35.803Z,56.98
2018-03-20T13:09:03.434Z,58.13
2018-03-20T13:11:31.167Z,61.16
2018-03-20T13:13:58.919Z,61.79
2018-03-20T13:16:26.463Z,61.24
2018-03-20T13:18:54.194Z,61.78
2018-03-20T13:21:21.754Z,62.09
2018-03-20T13:23:49.300Z,61.18
2018-03-20T13:26:16.895Z,63.56
2018-03-20T13:28:44.454Z,63.89
2018-03-20T13:31:12.006Z,63.99
2018-03-20T13:33:39.579Z,64.34
2018-03-20T13:36:07.128Z,62.52
2018-03-20T13:38:34.687Z,63.44
2018-03-20T13:41:02.451Z,63.10
2018-03-20T13:43:30.003Z,62.72
2018-03-20T13:45:57.560Z,64.65
2018-03-20T13:48:25.307Z,65.71
2018-03-20T13:50:52.885Z,64.79
2018-03-20T13:53:25.868Z,65.91
2018-03-20T13:55:53.555Z,66.48
2018-03-20T13:58:21.122Z,66.14
2018-03-20T14:00:48.696Z,66.18
2018-03-20T14:03:16.293Z,66.43
2018-03-20T14:05:43.887Z,66.24
2018-03-20T14:08:11.438Z,66.55
2018-03-20T14:10:39.044Z,67.59
2018-03-20T14:13:06.613Z,68.39
2018-03-20T14:15:34.166Z,68.66
2018-03-20T14:18:01.861Z,68.86
2018-03-20T14:20:29.421Z,68.70
2018-03-20T14:22:56.978Z,68.67
2018-03-20T14:25:24.666Z,69.37
2018-03-20T14:27:52.216Z,71.66
2018-03-20T14:30:19.773Z,71.54
2018-03-20T14:32:47.381Z,72.16
2018-03-20T14:35:14.948Z,72.14
2018-03-20T14:37:42.516Z,72.17
2018-03-20T14:40:10.111Z,71.40
2018-03-20T14:42:37.679Z,70.87
2018-03-20T14:45:05.275Z,70.98
2018-03-20T14:47:32.992Z,70.91
2018-03-20T14:50:00.548Z,71.36
2018-03-20T14:52:28.116Z,71.30
2018-03-20T14:54:55.756Z,72.11
2018-03-20T14:57:23.292Z,72.51
2018-03-20T14:59:50.843Z,72.78
2018-03-20T15:02:18.450Z,73.36
2018-03-20T15:04:46.000Z,73.63
2018-03-20T15:07:13.560Z,74.01
2018-03-20T15:09:41.161Z,74.42
2018-03-20T15:12:08.711Z,74.19
2018-03-20T15:14:36.265Z,74.76
2018-03-20T15:17:04.006Z,75.22
2018-03-20T15:19:31.553Z,75.41
2018-03-20T15:21:59.129Z,75.66
2018-03-20T15:24:26.813Z,75.97
2018-03-20T15:26:55.309Z,76.01
2018-03-20T15:29:22.878Z,76.16
2018-03-20T15:31:50.695Z,76.42
2018-03-20T15:34:18.239Z,76.51
2018-03-20T15:36:45.788Z,75.76
2018-03-20T15:39:13.516Z,76.25
2018-03-20T15:41:41.118Z,76.86
2018-03-20T15:44:08.654Z,77.62
2018-03-20T15:46:36.537Z,77.79
2018-03-20T15:49:04.097Z,78.51
2018-03-20T15:51:31.656Z,79.32
2018-03-20T15:54:00.198Z,79.29
2018-03-20T15:56:27.772Z,79.20
2018-03-20T15:58:55.355Z,79.55
2018-03-20T16:01:23.038Z,80.05
2018-03-20T16:03:50.613Z,80.48
2018-03-20T16:06:18.171Z,80.70
2018-03-20T16:08:45.900Z,80.88
2018-03-20T16:11:13.463Z,81.63
2018-03-20T16:13:41.011Z,81.57
2018-03-20T16:16:08.640Z,81.13
2018-03-20T16:18:37.219Z,81.07
2018-03-20T16:21:04.808Z,81.01
2018-03-20T16:23:32.538Z,80.74
2018-03-20T16:26:00.124Z,80.85
2018-03-20T16:28:27.691Z,80.97
2018-03-20T16:30:55.369Z,81.16
2018-03-20T16:33:22.918Z,81.60
2018-03-20T16:35:50.467Z,81.87
2018-03-20T16:38:18.058Z,82.26
2018-03-20T16:40:45.621Z,82.70
2018-03-20T16:43:13.177Z,83.33
2018-03-20T16:45:41.057Z,83.67
2018-03-20T16:48:08.619Z,83.49
2018-03-20T16:50:36.201Z,83.40
2018-03-20T16:53:04.081Z,83.04
2018-03-20T16:55:31.664Z,82.46
2018-03-20T16:57:59.218Z,81.97
2018-03-20T17:00:26.776Z,81.82
2018-03-20T17:02:54.345Z,81.67
2018-03-20T17:05:21.935Z,82.80
2018-03-20T17:07:49.553Z,83.22
2018-03-20T17:10:17.110Z,83.58
2018-03-20T17:12:44.732Z,83.63
2018-03-20T17:15:12.281Z,83.47
2018-03-20T17:17:39.840Z,83.70
2018-03-20T17:20:07.481Z,84.02
2018-03-20T17:22:35.060Z,84.26
2018-03-20T17:25:02.627Z,84.56
2018-03-20T17:27:30.339Z,84.59
2018-03-20T17:29:57.902Z,84.58
2018-03-20T17:32:25.456Z,84.50
2018-03-20T17:34:53.328Z,84.60
2018-03-20T17:37:20.877Z,84.33
2018-03-20T17:39:48.432Z,84.35
2018-03-20T17:42:16.163Z,83.09
2018-03-20T17:44:43.728Z,82.24
2018-03-20T17:47:11.303Z,83.39
2018-03-20T17:49:39.004Z,84.95
2018-03-20T17:52:06.559Z,84.89
2018-03-20T17:54:34.118Z,85.35
2018-03-20T17:57:01.686Z,85.61
2018-03-20T17:59:29.254Z,85.72
2018-03-20T18:01:56.833Z,85.84
2018-03-20T18:04:25.624Z,86.37
2018-03-20T18:06:53.180Z,86.80
2018-03-20T18:09:20.762Z,86.76
2018-03-20T18:11:48.466Z,87.07
2018-03-20T18:14:16.080Z,87.17
2018-03-20T18:16:43.671Z,87.18
2018-03-20T18:19:11.266Z,87.48
2018-03-20T18:21:38.819Z,87.65
2018-03-20T18:24:06.429Z,87.96
2018-03-20T18:26:34.034Z,88.17
2018-03-20T18:29:01.587Z,88.22
2018-03-20T18:31:29.160Z,88.23
2018-03-20T18:33:57.012Z,88.27
2018-03-20T18:36:24.581Z,88.37
2018-03-20T18:38:52.132Z,88.41
2018-03-20T18:41:19.715Z,88.34
2018-03-20T18:43:47.285Z,88.40
2018-03-20T18:46:14.850Z,88.39
2018-03-20T18:48:42.440Z,88.75
2018-03-20T18:51:10.010Z,88.77
2018-03-20T18:53:37.578Z,88.84
2018-03-20T18:56:05.194Z,89.00
2018-03-20T18:58:32.785Z,89.25
2018-03-20T19:01:01.876Z,89.23
2018-03-20T19:03:29.474Z,89.39
2018-03-20T19:05:57.023Z,89.50
2018-03-20T19:08:24.606Z,89.53
2018-03-20T19:10:52.199Z,89.58
2018-03-20T19:13:19.767Z,89.47
2018-03-20T19:15:47.322Z,89.62
2018-03-20T19:18:14.920Z,89.68
2018-03-20T19:20:42.485Z,89.49
2018-03-20T19:23:10.056Z,89.65
2018-03-20T19:25:37.696Z,89.80
2018-03-20T19:28:05.308Z,89.99
2018-03-20T19:30:32.902Z,90.04
2018-03-20T19:33:01.002Z,90.11
2018-03-20T19:35:28.563Z,89.96
2018-03-20T19:37:56.141Z,90.07
2018-03-20T19:40:23.794Z,90.02
2018-03-20T19:42:51.375Z,89.95
2018-03-20T19:45:18.974Z,89.98
2018-03-20T19:47:46.565Z,89.94
2018-03-20T19:50:14.195Z,90.02
2018-03-20T19:52:41.760Z,90.10
2018-03-20T19:55:09.483Z,90.00
2018-03-20T19:57:37.077Z,89.85
2018-03-20T20:00:04.716Z,89.83
2018-03-20T20:02:32.311Z,89.63
2018-03-20T20:04:59.895Z,89.88
2018-03-20T20:07:27.506Z,89.99
2018-03-20T20:09:55.294Z,90.29
2018-03-20T20:12:22.867Z,90.63
2018-03-20T20:14:50.467Z,90.52
2018-03-20T20:17:18.092Z,90.34
2018-03-20T20:19:45.682Z,90.31
2018-03-20T20:22:13.247Z,90.20
2018-03-20T20:24:40.997Z,90.24
2018-03-20T20:27:08.558Z,90.42
2018-03-20T20:29:36.171Z,90.64
2018-03-20T20:32:04.673Z,90.60
2018-03-20T20:34:32.276Z,90.54
2018-03-20T20:36:59.841Z,90.68
2018-03-20T20:39:27.476Z,90.81
2018-03-20T20:41:55.099Z,90.81
2018-03-20T20:44:22.745Z,90.78
2018-03-20T20:46:50.378Z,90.61
2018-03-20T20:49:17.943Z,90.58
2018-03-20T20:51:45.555Z,90.39
2018-03-20T20:54:13.596Z,90.36
2018-03-20T20:56:41.164Z,90.38
2018-03-20T20:59:08.757Z,90.33
2018-03-20T21:01:36.345Z,90.27
2018-03-20T21:04:03.915Z,90.68
2018-03-20T21:06:31.484Z,91.18
2018-03-20T21:08:59.099Z,91.20
2018-03-20T21:11:26.681Z,91.31
2018-03-20T21:13:54.287Z,91.34
2018-03-20T21:16:21.889Z,91.57
2018-03-20T21:18:49.462Z,91.72
2018-03-20T21:21:17.047Z,91.89
2018-03-20T21:23:44.653Z,91.92
2018-03-20T21:26:12.226Z,91.89
2018-03-20T21:28:39.788Z,91.92
2018-03-20T21:31:07.394Z,92.21
2018-03-20T21:33:34.964Z,92.29
2018-03-20T21:36:02.535Z,92.32
2018-03-20T21:38:30.145Z,92.40
2018-03-20T21:40:57.709Z,92.52
2018-03-20T21:43:25.259Z,92.55
2018-03-20T21:45:53.006Z,92.46
2018-03-20T21:48:20.548Z,92.34
2018-03-20T21:50:48.106Z,92.21
2018-03-20T21:53:15.983Z,92.09
2018-03-20T21:55:43.539Z,92.09
2018-03-20T21:58:11.112Z,92.12
2018-03-20T22:00:38.677Z,92.03
2018-03-20T22:03:06.235Z,92.00
2018-03-20T22:05:33.982Z,91.93
2018-03-20T22:08:01.618Z,91.89
2018-03-20T22:10:29.200Z,91.94
2018-03-20T22:12:56.929Z,91.80
2018-03-20T22:15:24.505Z,91.51
2018-03-20T22:17:52.054Z,91.18
2018-03-20T22:20:19.683Z,90.99
2018-03-20T22:22:47.230Z,90.95
2018-03-20T22:25:14.803Z,90.67
2018-03-20T22:27:42.419Z,90.69
2018-03-20T22:30:09.978Z,90.52
2018-03-20T22:32:37.541Z,90.50
2018-03-20T22:35:05.419Z,90.55
2018-03-20T22:37:32.995Z,90.56
2018-03-20T22:40:00.549Z,90.61
2018-03-20T22:42:28.133Z,90.60
2018-03-20T22:44:55.686Z,90.56
2018-03-20T22:47:23.235Z,90.54
2018-03-20T22:49:50.883Z,90.59
2018-03-20T22:52:18.388Z,90.53
2018-03-20T22:54:45.949Z,90.35
2018-03-20T22:57:13.610Z,90.23
2018-03-20T22:59:41.180Z,90.15
2018-03-20T23:02:08.719Z,90.04
2018-03-20T23:04:36.315Z,90.04
2018-03-20T23:07:03.860Z,89.88
2018-03-20T23:09:31.407Z,89.89
2018-03-20T23:11:59.006Z,90.04
2018-03-20T23:14:26.569Z,90.11
2018-03-20T23:16:54.131Z,90.04
2018-03-20T23:19:21.705Z,90.07
2018-03-20T23:21:49.261Z,90.07
2018-03-20T23:24:16.809Z,89.98
2018-03-20T23:26:44.549Z,90.26
2018-03-20T23:29:12.127Z,90.29
2018-03-20T23:31:39.698Z,90.21
2018-03-20T23:34:07.434Z,90.14
2018-03-20T23:36:35.017Z,90.07
2018-03-20T23:39:02.577Z,89.64
2018-03-20T23:41:31.330Z,89.44
2018-03-20T23:43:58.897Z,89.27
2018-03-20T23:46:26.445Z,89.45
2018-03-20T23:48:54.162Z,89.40
2018-03-20T23:51:21.719Z,89.48
2018-03-20T23:53:49.275Z,89.40
2018-03-20T23:56:16.863Z,89.45
2018-03-20T23:58:44.406Z,89.30
